Time;durP1;ratioP1;P1;durP2;ratioP2;P2;SDS_P1;SDS_P2;PMS_P1;PMS_P2;Temp;Humidity;BMP_temperature;BMP_pressure;BME280_temperature;BME280_humidity;BME280_pressure;Samples;Min_cycle;Max_cycle;Signal;HPM_P1;HPM_P2
2022/01/26 00:08:25;;;;;;;7.45;5.57;;;;;;;;;;5033080;27;81889;-64
2022/01/26 00:10:52;;;;;;;7.35;5.88;;;;;;;;;;5050360;27;81809;-62
2022/01/26 00:13:19;;;;;;;8.57;6.30;;;;;;;;;;5066259;27;84492;-63
2022/01/26 00:15:46;;;;;;;8.98;7.03;;;;;;;;;;5049434;27;83489;-63
2022/01/26 00:18:14;;;;;;;7.53;6.30;;;;;;;;;;5049555;27;81816;-62
2022/01/26 00:20:51;;;;;;;6.78;5.93;;;;;;;;;;5066050;27;81941;-63
2022/01/26 00:26:00;;;;;;;11.07;7.47;;;;;;;;;;5064775;27;81898;-62
2022/01/26 00:28:34;;;;;;;9.85;7.13;;;;;;;;;;5066327;27;82249;-63
2022/01/26 00:39:18;;;;;;;7.20;6.28;;;;;;;;;;5066942;27;82890;-63
2022/01/26 00:41:46;;;;;;;9.93;7.70;;;;;;;;;;5066989;27;82509;-61
2022/01/26 00:44:14;;;;;;;28.15;8.18;;;;;;;;;;5067068;27;84420;-62
2022/01/26 00:46:48;;;;;;;8.85;7.22;;;;;;;;;;5048965;27;82646;-63
2022/01/26 00:49:17;;;;;;;11.07;7.67;;;;;;;;;;5065864;27;82246;-63
2022/01/26 00:51:44;;;;;;;10.55;8.43;;;;;;;;;;5066974;27;82227;-62
2022/01/26 00:54:11;;;;;;;11.50;8.90;;;;;;;;;;5048007;27;83648;-62
2022/01/26 00:56:38;;;;;;;14.60;10.80;;;;;;;;;;5049344;27;82827;-62
2022/01/26 00:59:05;;;;;;;12.98;9.35;;;;;;;;;;5065845;27;82708;-63
2022/01/26 01:01:33;;;;;;;11.70;9.50;;;;;;;;;;5066859;27;81921;-63
2022/01/26 01:04:00;;;;;;;12.23;8.52;;;;;;;;;;5066464;27;83911;-64
2022/01/26 01:06:31;;;;;;;11.40;8.15;;;;;;;;;;5065455;27;83617;-63
2022/01/26 01:08:58;;;;;;;15.05;9.75;;;;;;;;;;5065475;27;82032;-63
2022/01/26 01:11:26;;;;;;;10.25;8.50;;;;;;;;;;5065748;27;81875;-61
2022/01/26 01:13:54;;;;;;;9.40;7.97;;;;;;;;;;5063568;27;82580;-64
2022/01/26 01:16:23;;;;;;;12.02;9.00;;;;;;;;;;5059592;27;83577;-62
2022/01/26 01:19:03;;;;;;;10.93;9.13;;;;;;;;;;5061347;27;81939;-61
2022/01/26 01:22:06;;;;;;;12.50;9.32;;;;;;;;;;5065557;27;81156;-61
2022/01/26 01:27:27;;;;;;;11.40;9.23;;;;;;;;;;5064559;27;83454;-61
2022/01/26 01:30:03;;;;;;;11.70;9.23;;;;;;;;;;5059543;27;83349;-61
2022/01/26 01:32:49;;;;;;;16.13;9.70;;;;;;;;;;5054160;27;81765;-62
2022/01/26 01:35:16;;;;;;;10.02;8.63;;;;;;;;;;5060722;27;83317;-62
2022/01/26 01:37:43;;;;;;;11.57;8.52;;;;;;;;;;5062531;27;81694;-64
2022/01/26 01:40:11;;;;;;;25.70;10.82;;;;;;;;;;5045612;27;81952;-64
2022/01/26 01:42:37;;;;;;;14.60;8.77;;;;;;;;;;5062329;27;82512;-61
2022/01/26 01:45:06;;;;;;;13.35;9.93;;;;;;;;;;5058352;27;89628;-60
2022/01/26 01:47:33;;;;;;;13.07;9.90;;;;;;;;;;5051197;27;89299;-61
2022/01/26 01:50:03;;;;;;;13.02;9.80;;;;;;;;;;5061147;27;86989;-61
2022/01/26 01:52:30;;;;;;;11.50;8.98;;;;;;;;;;5042035;27;86959;-60
2022/01/26 01:55:03;;;;;;;12.27;9.05;;;;;;;;;;5038904;27;90526;-61
2022/01/26 01:57:30;;;;;;;13.30;9.07;;;;;;;;;;5058192;27;89521;-61
2022/01/26 01:59:57;;;;;;;11.20;9.50;;;;;;;;;;5058761;27;86899;-61
2022/01/26 02:02:24;;;;;;;11.55;9.35;;;;;;;;;;5040561;27;87157;-60
2022/01/26 02:04:51;;;;;;;16.40;10.50;;;;;;;;;;5058373;27;87841;-60
2022/01/26 02:07:18;;;;;;;13.10;8.90;;;;;;;;;;5058659;27;88153;-61
2022/01/26 02:09:45;;;;;;;15.45;10.07;;;;;;;;;;5060229;27;86920;-61
2022/01/26 02:12:18;;;;;;;13.77;11.27;;;;;;;;;;5059002;27;86153;-64
2022/01/26 02:14:51;;;;;;;11.37;9.80;;;;;;;;;;5062436;27;89022;-61
2022/01/26 02:17:55;;;;;;;10.32;8.90;;;;;;;;;;5045664;27;87531;-65
2022/01/26 02:56:14;;;;;;;16.02;10.55;;;;;;;;;;5062659;27;86880;-62
2022/01/26 03:06:45;;;;;;;16.20;11.75;;;;;;;;;;5062197;27;86170;-62
2022/01/26 03:09:15;;;;;;;13.00;10.30;;;;;;;;;;5060205;27;88565;-63
2022/01/26 03:11:45;;;;;;;13.90;9.52;;;;;;;;;;5061813;27;88952;-61
2022/01/26 03:16:52;;;;;;;12.77;10.53;;;;;;;;;;5061829;27;87254;-61
2022/01/26 03:19:31;;;;;;;14.15;10.82;;;;;;;;;;5044419;27;87277;-62
2022/01/26 03:30:29;;;;;;;14.82;11.07;;;;;;;;;;5061134;27;88835;-62
2022/01/26 03:38:17;;;;;;;12.27;10.52;;;;;;;;;;5059708;27;86931;-61
2022/01/26 03:40:44;;;;;;;14.20;12.25;;;;;;;;;;5060640;27;89161;-61
2022/01/26 03:43:11;;;;;;;13.45;10.20;;;;;;;;;;5059561;27;89245;-62
2022/01/26 03:45:38;;;;;;;12.68;9.32;;;;;;;;;;5043066;27;87081;-61
2022/01/26 03:48:05;;;;;;;14.77;11.32;;;;;;;;;;5061328;27;87009;-63
2022/01/26 03:50:32;;;;;;;18.50;11.70;;;;;;;;;;5042937;27;87020;-62
2022/01/26 03:52:58;;;;;;;12.85;10.32;;;;;;;;;;5060896;27;87085;-62
2022/01/26 03:55:25;;;;;;;14.90;10.45;;;;;;;;;;5059201;27;86898;-62
2022/01/26 03:57:52;;;;;;;14.88;11.40;;;;;;;;;;5060229;27;86049;-62
2022/01/26 04:00:19;;;;;;;16.95;11.35;;;;;;;;;;5059243;27;89406;-61
2022/01/26 04:02:47;;;;;;;13.15;9.38;;;;;;;;;;5061109;27;87682;-61
2022/01/26 04:05:14;;;;;;;15.52;12.00;;;;;;;;;;5043196;27;87979;-62
2022/01/26 04:07:43;;;;;;;12.27;10.65;;;;;;;;;;5043016;27;86999;-62
2022/01/26 04:10:24;;;;;;;12.18;10.05;;;;;;;;;;5059693;27;88083;-61
2022/01/26 04:12:52;;;;;;;13.00;10.65;;;;;;;;;;5059679;27;89337;-62
2022/01/26 04:15:27;;;;;;;13.52;11.05;;;;;;;;;;5042929;27;87328;-61
2022/01/26 04:17:54;;;;;;;12.40;10.07;;;;;;;;;;5059421;27;87178;-62
2022/01/26 04:20:25;;;;;;;13.18;10.63;;;;;;;;;;5059134;27;89121;-61
2022/01/26 04:23:08;;;;;;;14.52;11.20;;;;;;;;;;5060219;27;87423;-62
2022/01/26 04:25:36;;;;;;;13.43;11.02;;;;;;;;;;5059800;27;86958;-63
2022/01/26 04:28:07;;;;;;;14.88;11.30;;;;;;;;;;5059264;27;87205;-62
2022/01/26 04:30:34;;;;;;;12.60;10.10;;;;;;;;;;5058918;27;90304;-62
2022/01/26 04:33:04;;;;;;;11.88;9.95;;;;;;;;;;5060395;27;88834;-62
2022/01/26 04:35:33;;;;;;;12.10;10.35;;;;;;;;;;5059787;27;87176;-63
2022/01/26 04:40:59;;;;;;;13.73;10.95;;;;;;;;;;5058932;27;88057;-60
2022/01/26 04:43:30;;;;;;;12.05;10.13;;;;;;;;;;5060427;27;87373;-60
2022/01/26 04:45:57;;;;;;;14.48;11.00;;;;;;;;;;5060984;27;86940;-60
2022/01/26 04:48:26;;;;;;;12.13;10.88;;;;;;;;;;5063084;27;86465;-61
2022/01/26 04:50:53;;;;;;;13.77;11.10;;;;;;;;;;5063144;27;87700;-65
2022/01/26 04:53:20;;;;;;;10.57;9.25;;;;;;;;;;5063796;27;89061;-61
2022/01/26 04:55:47;;;;;;;13.55;11.00;;;;;;;;;;5063544;27;87896;-61
2022/01/26 04:58:14;;;;;;;13.30;11.05;;;;;;;;;;5062464;27;86963;-60
2022/01/26 05:00:41;;;;;;;13.50;10.82;;;;;;;;;;5063673;27;88072;-60
2022/01/26 05:03:08;;;;;;;13.45;10.77;;;;;;;;;;5061906;27;89606;-61
2022/01/26 05:05:39;;;;;;;13.10;10.63;;;;;;;;;;5063698;27;86813;-60
2022/01/26 05:08:05;;;;;;;12.60;10.13;;;;;;;;;;5061827;27;87367;-61
2022/01/26 05:10:33;;;;;;;11.82;8.88;;;;;;;;;;5063236;27;88796;-61
2022/01/26 05:13:00;;;;;;;12.20;9.65;;;;;;;;;;5064311;27;89117;-60
2022/01/26 05:15:26;;;;;;;11.30;9.43;;;;;;;;;;5062945;27;86967;-61
2022/01/26 05:17:53;;;;;;;10.90;9.52;;;;;;;;;;5054267;27;86772;-61
2022/01/26 05:20:20;;;;;;;11.85;9.07;;;;;;;;;;5056178;27;89437;-62
2022/01/26 05:22:47;;;;;;;14.10;9.63;;;;;;;;;;5060096;27;88383;-60
2022/01/26 05:25:14;;;;;;;12.77;9.20;;;;;;;;;;5062089;27;86923;-62
2022/01/26 05:27:42;;;;;;;10.98;8.93;;;;;;;;;;5061928;27;88306;-62
2022/01/26 05:30:09;;;;;;;11.32;9.70;;;;;;;;;;5063327;27;88781;-61
2022/01/26 05:32:36;;;;;;;13.18;10.65;;;;;;;;;;5063833;27;87951;-63
2022/01/26 05:35:03;;;;;;;10.02;8.90;;;;;;;;;;5061803;27;86989;-62
2022/01/26 05:37:31;;;;;;;11.77;9.82;;;;;;;;;;5062442;27;86581;-62
2022/01/26 05:39:58;;;;;;;11.90;9.30;;;;;;;;;;5063733;27;87129;-63
2022/01/26 05:42:25;;;;;;;14.00;9.95;;;;;;;;;;5061975;27;88345;-64
2022/01/26 05:44:54;;;;;;;9.68;8.65;;;;;;;;;;5062115;27;88159;-63
2022/01/26 05:47:21;;;;;;;11.95;10.23;;;;;;;;;;5063281;27;86909;-62
2022/01/26 05:49:48;;;;;;;11.60;9.88;;;;;;;;;;5061310;27;87987;-63
2022/01/26 05:52:15;;;;;;;11.52;8.35;;;;;;;;;;5045203;27;87480;-63
2022/01/26 05:54:42;;;;;;;11.57;9.75;;;;;;;;;;5062837;27;86846;-62
2022/01/26 05:57:09;;;;;;;10.13;9.13;;;;;;;;;;5061996;27;87404;-62
2022/01/26 05:59:35;;;;;;;13.75;11.32;;;;;;;;;;5062894;27;89131;-62
2022/01/26 06:02:04;;;;;;;12.65;9.82;;;;;;;;;;5062925;27;88545;-63
2022/01/26 06:04:31;;;;;;;11.20;8.90;;;;;;;;;;5044944;27;86803;-62
2022/01/26 06:06:58;;;;;;;10.18;8.88;;;;;;;;;;5062233;27;86948;-64
2022/01/26 06:09:25;;;;;;;10.20;8.80;;;;;;;;;;5061203;27;90239;-62
2022/01/26 06:11:52;;;;;;;10.45;9.35;;;;;;;;;;5062747;27;87292;-62
2022/01/26 06:14:19;;;;;;;10.40;7.97;;;;;;;;;;5062423;27;86885;-62
2022/01/26 06:16:46;;;;;;;10.35;8.57;;;;;;;;;;5057396;27;87602;-63
2022/01/26 06:19:13;;;;;;;11.48;8.52;;;;;;;;;;5054364;27;89727;-61
2022/01/26 06:21:39;;;;;;;11.40;8.82;;;;;;;;;;5058464;27;88638;-62
2022/01/26 06:24:06;;;;;;;10.85;8.23;;;;;;;;;;5060268;27;86980;-64
2022/01/26 06:26:33;;;;;;;9.13;7.63;;;;;;;;;;5056104;27;86702;-62
2022/01/26 06:29:00;;;;;;;11.50;8.75;;;;;;;;;;5057165;27;89165;-62
2022/01/26 06:31:28;;;;;;;10.75;9.30;;;;;;;;;;5060211;27;87513;-64
2022/01/26 06:33:56;;;;;;;9.98;8.20;;;;;;;;;;5059490;27;87857;-62
2022/01/26 06:36:23;;;;;;;9.57;8.32;;;;;;;;;;5058698;27;87683;-63
2022/01/26 06:38:50;;;;;;;13.90;8.25;;;;;;;;;;5052951;27;87980;-63
2022/01/26 06:41:23;;;;;;;10.50;8.02;;;;;;;;;;5058946;27;88001;-63
2022/01/26 06:43:58;;;;;;;10.10;9.02;;;;;;;;;;5058648;27;86890;-63
2022/01/26 06:46:35;;;;;;;10.40;8.10;;;;;;;;;;5054916;27;87013;-62
2022/01/26 06:51:47;;;;;;;13.55;8.82;;;;;;;;;;5057367;27;87428;-63
2022/01/26 06:54:14;;;;;;;35.35;9.98;;;;;;;;;;5057098;27;87155;-62
2022/01/26 06:56:41;;;;;;;41.35;31.20;;;;;;;;;;5057450;27;87144;-73
2022/01/26 06:59:08;;;;;;;45.78;33.45;;;;;;;;;;5058909;27;88770;-71
2022/01/26 07:01:35;;;;;;;55.47;35.83;;;;;;;;;;5057464;27;88421;-71
2022/01/26 07:04:02;;;;;;;58.28;36.83;;;;;;;;;;5061883;27;87031;-70
2022/01/26 07:06:29;;;;;;;54.10;38.15;;;;;;;;;;5061452;27;86888;-70
2022/01/26 07:08:56;;;;;;;59.28;36.58;;;;;;;;;;5061070;27;89203;-69
2022/01/26 07:11:23;;;;;;;54.90;37.08;;;;;;;;;;5060507;27;87882;-70
2022/01/26 07:13:54;;;;;;;59.63;38.85;;;;;;;;;;5060248;27;86832;-70
2022/01/26 07:21:52;;;;;;;62.80;38.15;;;;;;;;;;5046089;27;87570;-69
2022/01/26 07:24:19;;;;;;;56.20;34.65;;;;;;;;;;5042572;27;87982;-68
2022/01/26 07:26:50;;;;;;;53.20;33.92;;;;;;;;;;5061319;27;86895;-72
2022/01/26 07:29:22;;;;;;;57.55;36.92;;;;;;;;;;5060890;27;87774;-69
2022/01/26 07:31:49;;;;;;;57.28;35.13;;;;;;;;;;5061667;27;88055;-70
2022/01/26 07:34:19;;;;;;;67.18;38.00;;;;;;;;;;5061307;27;86897;-69
2022/01/26 07:36:51;;;;;;;58.60;33.47;;;;;;;;;;5059811;27;86967;-69
2022/01/26 07:39:29;;;;;;;58.03;35.58;;;;;;;;;;5060301;27;87662;-70
2022/01/26 07:41:57;;;;;;;61.15;36.53;;;;;;;;;;5060926;27;87792;-69
2022/01/26 07:44:24;;;;;;;70.00;36.88;;;;;;;;;;5054754;27;87334;-69
2022/01/26 07:46:51;;;;;;;66.22;36.72;;;;;;;;;;5053164;27;87005;-69
2022/01/26 07:49:18;;;;;;;67.22;35.55;;;;;;;;;;5042500;27;88276;-69
2022/01/26 07:51:47;;;;;;;59.65;35.40;;;;;;;;;;5053358;27;89754;-68
2022/01/26 07:54:16;;;;;;;58.22;32.03;;;;;;;;;;5036926;27;87377;-68
2022/01/26 07:56:44;;;;;;;74.15;36.90;;;;;;;;;;5060135;27;87034;-70
2022/01/26 07:59:11;;;;;;;65.45;39.10;;;;;;;;;;5042326;27;86895;-70
2022/01/26 08:01:38;;;;;;;76.22;39.03;;;;;;;;;;5059822;27;87261;-70
2022/01/26 08:04:05;;;;;;;66.93;39.72;;;;;;;;;;5059175;27;86886;-69
2022/01/26 08:06:37;;;;;;;72.65;39.65;;;;;;;;;;5043879;27;86084;-69
2022/01/26 08:09:04;;;;;;;63.33;36.65;;;;;;;;;;5059942;27;89132;-70
2022/01/26 08:11:31;;;;;;;66.72;38.05;;;;;;;;;;5058721;27;89193;-69
2022/01/26 08:13:58;;;;;;;62.22;34.75;;;;;;;;;;5041497;27;87876;-69
2022/01/26 08:16:25;;;;;;;69.18;37.92;;;;;;;;;;5058388;27;86860;-69
2022/01/26 08:18:52;;;;;;;62.60;37.72;;;;;;;;;;5042476;27;87880;-69
2022/01/26 08:21:19;;;;;;;70.13;37.63;;;;;;;;;;5045312;27;89332;-69
2022/01/26 08:23:48;;;;;;;67.43;39.90;;;;;;;;;;5061758;27;87281;-69
2022/01/26 08:26:21;;;;;;;64.00;36.88;;;;;;;;;;5061779;27;86918;-68
2022/01/26 08:28:53;;;;;;;67.40;38.63;;;;;;;;;;5062066;27;88103;-69
2022/01/26 08:31:20;;;;;;;63.03;33.50;;;;;;;;;;5046381;27;87266;-69
2022/01/26 08:33:48;;;;;;;56.75;34.55;;;;;;;;;;5063433;27;86864;-69
2022/01/26 08:36:15;;;;;;;60.42;35.35;;;;;;;;;;5063888;27;87243;-68
2022/01/26 08:38:42;;;;;;;59.58;35.30;;;;;;;;;;5061738;27;90249;-69
2022/01/26 08:41:10;;;;;;;62.28;35.20;;;;;;;;;;5063926;27;88801;-68
2022/01/26 08:43:37;;;;;;;61.85;35.90;;;;;;;;;;5063562;27;86815;-68
2022/01/26 08:46:04;;;;;;;57.78;32.53;;;;;;;;;;5062991;27;87087;-68
2022/01/26 08:48:31;;;;;;;69.13;33.90;;;;;;;;;;5045308;27;89039;-68
2022/01/26 08:50:58;;;;;;;63.00;37.42;;;;;;;;;;5062764;27;87396;-68
2022/01/26 08:53:25;;;;;;;71.28;37.95;;;;;;;;;;5045494;27;87381;-68
2022/01/26 08:55:52;;;;;;;69.47;36.25;;;;;;;;;;5063677;27;86212;-68
2022/01/26 08:58:19;;;;;;;69.32;37.65;;;;;;;;;;5045388;27;87652;-69
2022/01/26 09:00:46;;;;;;;59.00;33.35;;;;;;;;;;5061811;27;88969;-69
2022/01/26 09:03:15;;;;;;;56.20;33.92;;;;;;;;;;5061865;27;88280;-68
2022/01/26 09:05:42;;;;;;;67.07;36.83;;;;;;;;;;5045854;27;86925;-72
2022/01/26 09:08:09;;;;;;;57.55;34.05;;;;;;;;;;5062111;27;88636;-69
2022/01/26 09:10:39;;;;;;;58.65;31.73;;;;;;;;;;5063288;27;88860;-68
2022/01/26 09:13:06;;;;;;;59.72;35.67;;;;;;;;;;5045413;27;86913;-68
2022/01/26 09:15:34;;;;;;;55.42;35.38;;;;;;;;;;5025381;28;86945;-69
2022/01/26 09:18:04;;;;;;;66.25;38.97;;;;;;;;;;5058321;27;89396;-69
2022/01/26 09:20:34;;;;;;;65.43;38.67;;;;;;;;;;5062782;27;87370;-68
2022/01/26 09:23:01;;;;;;;61.78;35.70;;;;;;;;;;5061944;27;87299;-68
2022/01/26 09:25:33;;;;;;;60.15;34.33;;;;;;;;;;5061884;27;86892;-68
2022/01/26 09:28:00;;;;;;;56.60;36.15;;;;;;;;;;5062487;27;88971;-69
2022/01/26 09:30:28;;;;;;;65.57;37.25;;;;;;;;;;5060598;27;88785;-68
2022/01/26 09:32:54;;;;;;;61.72;36.08;;;;;;;;;;5062104;27;87128;-69
2022/01/26 09:35:21;;;;;;;57.40;34.00;;;;;;;;;;5062803;27;86901;-69
2022/01/26 09:37:48;;;;;;;61.13;36.65;;;;;;;;;;5061796;27;88903;-69
2022/01/26 09:40:15;;;;;;;59.35;35.88;;;;;;;;;;5061574;27;88964;-69
2022/01/26 09:42:43;;;;;;;60.85;36.65;;;;;;;;;;5062031;27;87357;-69
2022/01/26 09:45:11;;;;;;;60.28;36.03;;;;;;;;;;5063687;27;86117;-69
2022/01/26 09:47:39;;;;;;;63.05;37.15;;;;;;;;;;5061062;27;87608;-69
2022/01/26 09:50:26;;;;;;;59.80;36.05;;;;;;;;;;5062550;27;90057;-69
2022/01/26 09:52:55;;;;;;;57.42;34.33;;;;;;;;;;5060891;27;87880;-69
2022/01/26 09:55:23;;;;;;;57.25;36.17;;;;;;;;;;5062529;27;86839;-69
2022/01/26 09:57:53;;;;;;;55.78;32.88;;;;;;;;;;5061138;27;89629;-69
2022/01/26 10:00:20;;;;;;;59.55;36.08;;;;;;;;;;5061673;27;89091;-69
2022/01/26 10:02:59;;;;;;;62.35;34.92;;;;;;;;;;5062826;27;86884;-69
2022/01/26 10:05:38;;;;;;;61.55;37.45;;;;;;;;;;5061691;27;87041;-69
2022/01/26 10:19:06;;;;;;;52.58;32.72;;;;;;;;;;5060655;27;88669;-69
2022/01/26 10:21:45;;;;;;;60.78;34.40;;;;;;;;;;5060569;27;88990;-70
2022/01/26 10:24:12;;;;;;;59.05;34.90;;;;;;;;;;5061875;27;86968;-69
2022/01/26 10:26:39;;;;;;;51.83;31.98;;;;;;;;;;5059672;27;87378;-69
2022/01/26 10:29:06;;;;;;;56.25;32.75;;;;;;;;;;5062080;27;87726;-69
2022/01/26 10:31:39;;;;;;;58.20;35.63;;;;;;;;;;5060755;27;87746;-69
2022/01/26 10:34:15;;;;;;;;;;;;;;;;;;5062365;27;86845;-70
2022/01/26 10:36:57;;;;;;;55.70;32.17;;;;;;;;;;5062533;27;86240;-69
2022/01/26 10:39:33;;;;;;;60.30;35.05;;;;;;;;;;5060960;27;86800;-68
2022/01/26 10:42:07;;;;;;;46.92;30.42;;;;;;;;;;5060867;27;88691;-68
2022/01/26 10:44:45;;;;;;;49.83;30.02;;;;;;;;;;5059416;27;87885;-69
2022/01/26 10:47:12;;;;;;;44.15;29.48;;;;;;;;;;5060641;27;87204;-69
2022/01/26 10:49:55;;;;;;;50.30;31.20;;;;;;;;;;5058650;27;87698;-69
2022/01/26 10:54:57;;;;;;;;;;;;;;;;;;5058411;27;86963;-69
2022/01/26 10:57:25;;;;;;;45.63;28.27;;;;;;;;;;5060190;27;86844;-71
2022/01/26 10:59:52;;;;;;;50.55;29.58;;;;;;;;;;5059744;27;87878;-69
2022/01/26 11:02:33;;;;;;;51.92;28.52;;;;;;;;;;5062611;27;87577;-69
2022/01/26 11:05:00;;;;;;;54.30;31.67;;;;;;;;;;5061671;27;86924;-68
2022/01/26 11:07:36;;;;;;;47.85;30.85;;;;;;;;;;5059934;27;87074;-69
2022/01/26 11:10:06;;;;;;;50.30;30.02;;;;;;;;;;5058032;27;89019;-68
2022/01/26 11:12:35;;;;;;;48.65;32.28;;;;;;;;;;5060493;27;88407;-68
2022/01/26 11:15:11;;;;;;;49.28;29.02;;;;;;;;;;5043608;27;87155;-69
2022/01/26 11:17:43;;;;;;;45.55;27.00;;;;;;;;;;5061110;27;86940;-68
2022/01/26 11:20:34;;;;;;;50.08;28.13;;;;;;;;;;5060195;27;87791;-69
2022/01/26 11:23:04;;;;;;;48.45;30.08;;;;;;;;;;5059740;27;87663;-69
2022/01/26 11:25:44;;;;;;;47.30;27.63;;;;;;;;;;5060597;27;87526;-69
2022/01/26 11:28:22;;;;;;;48.20;30.23;;;;;;;;;;5060077;27;86177;-70
2022/01/26 11:30:51;;;;;;;45.55;28.60;;;;;;;;;;5060264;27;88014;-69
2022/01/26 11:33:20;;;;;;;47.10;29.25;;;;;;;;;;5060545;27;88357;-68
2022/01/26 11:35:52;;;;;;;46.53;30.15;;;;;;;;;;5054885;27;88331;-68
2022/01/26 11:47:00;;;;;;;49.45;29.88;;;;;;;;;;5057033;27;87040;-70
2022/01/26 11:49:33;;;;;;;48.33;28.35;;;;;;;;;;5058561;27;87294;-68
2022/01/26 11:52:01;;;;;;;50.28;28.15;;;;;;;;;;5058281;27;86903;-69
2022/01/26 11:54:40;;;;;;;48.35;30.05;;;;;;;;;;5060180;27;87613;-69
2022/01/26 11:57:13;;;;;;;47.47;30.00;;;;;;;;;;5062425;27;86979;-68
2022/01/26 11:59:47;;;;;;;47.13;28.02;;;;;;;;;;5063455;27;87401;-69
2022/01/26 12:02:49;;;;;;;44.53;27.60;;;;;;;;;;5061855;27;88811;-69
2022/01/26 12:05:17;;;;;;;46.50;28.38;;;;;;;;;;5060038;27;88947;-68
2022/01/26 12:07:53;;;;;;;43.13;29.98;;;;;;;;;;5063795;27;86933;-69
2022/01/26 12:10:28;;;;;;;51.75;30.60;;;;;;;;;;5063182;27;87179;-70
2022/01/26 12:13:04;;;;;;;52.63;29.35;;;;;;;;;;5062537;27;86838;-68
2022/01/26 12:15:42;;;;;;;45.17;28.88;;;;;;;;;;5062862;27;87697;-69
2022/01/26 12:18:22;;;;;;;51.13;28.20;;;;;;;;;;5063229;27;86919;-68
2022/01/26 12:35:07;;;;;;;34.63;23.35;;;;;;;;;;5064004;27;88076;-68
2022/01/26 12:37:54;;;;;;;36.80;22.97;;;;;;;;;;5062813;27;87955;-69
2022/01/26 12:43:53;;;;;;;35.45;21.42;;;;;;;;;;5063967;27;86940;-69
2022/01/26 12:46:26;;;;;;;32.22;22.42;;;;;;;;;;5063284;27;89299;-68
2022/01/26 12:49:13;;;;;;;35.78;21.60;;;;;;;;;;5046151;27;87594;-68
2022/01/26 12:51:50;;;;;;;76.22;50.63;;;;;;;;;;5062919;27;87586;-66
2022/01/26 12:54:18;;;;;;;37.78;22.65;;;;;;;;;;5062651;27;86961;-67
2022/01/26 12:56:46;;;;;;;49.42;27.30;;;;;;;;;;5059825;27;88762;-68
2022/01/26 12:59:17;;;;;;;35.28;22.70;;;;;;;;;;5059468;27;88522;-71
2022/01/26 13:01:52;;;;;;;44.00;27.70;;;;;;;;;;5059522;27;87372;-68
2022/01/26 13:04:20;;;;;;;33.38;21.35;;;;;;;;;;5061550;27;87060;-70
2022/01/26 13:06:51;;;;;;;33.10;21.05;;;;;;;;;;5057234;27;88424;-70
2022/01/26 13:09:26;;;;;;;31.95;20.92;;;;;;;;;;5042860;27;86952;-70
2022/01/26 13:11:58;;;;;;;36.78;20.40;;;;;;;;;;5057817;27;87774;-70
2022/01/26 13:14:30;;;;;;;36.75;20.90;;;;;;;;;;5043663;27;86225;-70
2022/01/26 13:23:01;;;;;;;34.00;22.52;;;;;;;;;;5013948;27;87959;-70
2022/01/26 13:36:38;;;;;;;36.70;22.85;;;;;;;;;;5059538;27;87215;-69
2022/01/26 13:47:32;;;;;;;38.88;23.95;;;;;;;;;;5059816;27;86891;-72
2022/01/26 13:53:05;;;;;;;38.33;22.33;;;;;;;;;;5005693;27;90272;-72
2022/01/26 13:58:41;;;;;;;36.70;22.13;;;;;;;;;;5057650;27;87039;-70
2022/01/26 14:01:20;;;;;;;39.85;24.88;;;;;;;;;;5056694;27;87831;-72
2022/01/26 14:03:52;;;;;;;39.15;23.48;;;;;;;;;;5059968;27;87488;-71
2022/01/26 14:06:19;;;;;;;36.00;22.17;;;;;;;;;;5058386;27;87517;-71
2022/01/26 14:08:46;;;;;;;36.55;21.52;;;;;;;;;;5059880;27;86301;-71
2022/01/26 14:11:13;;;;;;;34.47;22.63;;;;;;;;;;5059541;27;87136;-72
2022/01/26 14:13:40;;;;;;;37.75;24.50;;;;;;;;;;5040790;27;88864;-75
2022/01/26 14:16:10;;;;;;;31.25;21.42;;;;;;;;;;5059844;27;88594;-70
2022/01/26 14:18:48;;;;;;;41.15;22.98;;;;;;;;;;5042313;27;87627;-71
2022/01/26 14:26:23;;;;;;;36.33;23.00;;;;;;;;;;5059516;27;87335;-68
2022/01/26 14:28:50;;;;;;;38.10;22.73;;;;;;;;;;5058285;27;87111;-70
2022/01/26 14:33:57;;;;;;;39.40;20.98;;;;;;;;;;5057787;27;87532;-70
2022/01/26 15:43:54;;;;;;;43.80;28.65;;;;;;;;;;4992757;27;87346;-70
2022/01/26 15:52:18;;;;;;;106.53;65.35;;;;;;;;;;5059020;27;87349;-70
2022/01/26 16:19:56;;;;;;;53.40;27.75;;;;;;;;;;5037203;27;87677;-71
2022/01/26 16:38:24;;;;;;;53.30;31.08;;;;;;;;;;5058676;27;87228;-71
2022/01/26 18:39:31;;;;;;;69.18;44.33;;;;;;;;;;5046397;27;86565;-72
2022/01/26 18:50:28;;;;;;;110.38;76.35;;;;;;;;;;5060356;27;86958;-72
2022/01/26 18:52:55;;;;;;;125.47;79.72;;;;;;;;;;5061160;27;87250;-72
2022/01/26 18:55:22;;;;;;;110.35;71.57;;;;;;;;;;5053137;27;87753;-72
2022/01/26 18:57:50;;;;;;;90.15;55.35;;;;;;;;;;5059205;27;87802;-72
2022/01/26 19:00:17;;;;;;;70.53;44.92;;;;;;;;;;5060643;27;87100;-73
2022/01/26 19:02:44;;;;;;;69.28;40.92;;;;;;;;;;5060203;27;87994;-71
2022/01/26 19:05:13;;;;;;;67.45;42.42;;;;;;;;;;5059819;27;87634;-73
2022/01/26 19:07:40;;;;;;;67.38;40.08;;;;;;;;;;5059952;27;86904;-72
2022/01/26 19:10:09;;;;;;;67.30;43.53;;;;;;;;;;5057129;27;86889;-71
2022/01/26 19:12:37;;;;;;;65.78;43.92;;;;;;;;;;5057593;27;88850;-71
2022/01/26 19:15:10;;;;;;;70.72;45.45;;;;;;;;;;5059865;27;88556;-72
2022/01/26 19:17:59;;;;;;;73.57;45.65;;;;;;;;;;5061599;27;87288;-71
2022/01/26 19:20:39;;;;;;;74.43;46.72;;;;;;;;;;5059724;27;86914;-72
2022/01/26 19:25:59;;;;;;;74.75;43.35;;;;;;;;;;5059744;27;88428;-72
2022/01/26 19:28:33;;;;;;;68.85;47.80;;;;;;;;;;5041349;27;87260;-72
2022/01/26 19:44:20;;;;;;;88.53;54.70;;;;;;;;;;5043553;28;89225;-73
2022/01/26 19:47:13;;;;;;;79.32;54.60;;;;;;;;;;5041020;28;88793;-72
2022/01/26 19:52:24;;;;;;;90.40;55.85;;;;;;;;;;5041631;27;87667;-73
2022/01/26 19:54:54;;;;;;;85.68;54.28;;;;;;;;;;5034874;28;87734;-72
2022/01/26 19:57:22;;;;;;;87.60;58.00;;;;;;;;;;5037285;28;88013;-72
2022/01/26 19:59:51;;;;;;;78.30;52.63;;;;;;;;;;5029670;28;87997;-72
2022/01/26 20:02:19;;;;;;;78.25;54.47;;;;;;;;;;5034642;28;87000;-71
2022/01/26 20:04:47;;;;;;;72.85;49.72;;;;;;;;;;5032037;28;88835;-73
2022/01/26 20:07:20;;;;;;;86.45;56.30;;;;;;;;;;5031858;28;87454;-72
2022/01/26 20:09:55;;;;;;;101.55;67.32;;;;;;;;;;5034441;28;86950;-70
2022/01/26 20:15:00;;;;;;;87.03;59.58;;;;;;;;;;5021109;28;88553;-74
2022/01/26 20:17:27;;;;;;;80.60;54.83;;;;;;;;;;5040137;27;88059;-72
2022/01/26 20:19:55;;;;;;;79.10;49.30;;;;;;;;;;5039527;28;87025;-71
2022/01/26 20:22:22;;;;;;;75.25;49.45;;;;;;;;;;5045589;27;86199;-71
2022/01/26 20:24:50;;;;;;;76.15;49.78;;;;;;;;;;5037185;28;87847;-74
2022/01/26 20:27:20;;;;;;;74.20;48.85;;;;;;;;;;5050347;27;87597;-73
2022/01/26 20:29:57;;;;;;;71.75;46.42;;;;;;;;;;5059967;27;89282;-72
2022/01/26 20:32:24;;;;;;;75.25;48.40;;;;;;;;;;5058370;27;87319;-71
2022/01/26 20:34:52;;;;;;;82.30;50.17;;;;;;;;;;5060383;27;88313;-70
2022/01/26 20:37:19;;;;;;;82.07;56.65;;;;;;;;;;5058210;27;87593;-68
2022/01/26 20:39:46;;;;;;;69.38;46.58;;;;;;;;;;5060838;27;86846;-70
2022/01/26 20:42:13;;;;;;;71.60;47.10;;;;;;;;;;5062111;27;86885;-70
2022/01/26 20:44:41;;;;;;;73.20;47.50;;;;;;;;;;5060019;27;86994;-74
2022/01/26 20:47:08;;;;;;;67.40;45.30;;;;;;;;;;5039524;27;90221;-68
2022/01/26 20:49:35;;;;;;;78.28;52.25;;;;;;;;;;5038262;27;86957;-74
2022/01/26 20:52:03;;;;;;;73.25;47.25;;;;;;;;;;5060817;27;87037;-74
2022/01/26 20:54:30;;;;;;;73.05;51.50;;;;;;;;;;5043267;27;88788;-72
2022/01/26 20:56:58;;;;;;;83.35;54.22;;;;;;;;;;5061546;27;88485;-73
2022/01/26 20:59:25;;;;;;;86.32;57.53;;;;;;;;;;5063288;27;87059;-73
2022/01/26 21:01:52;;;;;;;87.68;56.83;;;;;;;;;;5060413;27;87062;-71
2022/01/26 21:04:19;;;;;;;82.85;52.60;;;;;;;;;;5059679;27;86821;-72
2022/01/26 21:06:47;;;;;;;80.25;53.75;;;;;;;;;;5062454;27;88830;-72
2022/01/26 21:09:14;;;;;;;92.80;56.42;;;;;;;;;;5037926;27;87047;-73
2022/01/26 21:11:41;;;;;;;83.63;52.85;;;;;;;;;;5057421;27;86154;-73
2022/01/26 21:14:09;;;;;;;76.07;50.90;;;;;;;;;;5043631;27;90669;-71
2022/01/26 21:16:38;;;;;;;77.75;47.88;;;;;;;;;;5058819;27;87149;-72
2022/01/26 21:19:06;;;;;;;72.93;47.33;;;;;;;;;;5057678;27;87762;-72
2022/01/26 21:21:33;;;;;;;86.97;56.22;;;;;;;;;;5058582;27;87034;-73
2022/01/26 21:24:00;;;;;;;91.25;59.70;;;;;;;;;;5060039;27;88141;-71
2022/01/26 21:26:28;;;;;;;250.32;130.90;;;;;;;;;;5058101;27;87650;-72
2022/01/26 21:28:55;;;;;;;92.28;58.65;;;;;;;;;;5056672;27;86969;-72
2022/01/26 21:31:22;;;;;;;80.72;54.50;;;;;;;;;;5059024;27;87534;-72
2022/01/26 21:33:49;;;;;;;78.38;53.30;;;;;;;;;;5060332;27;87314;-72
2022/01/26 21:36:17;;;;;;;75.68;49.88;;;;;;;;;;5060643;27;87552;-73
2022/01/26 21:38:46;;;;;;;73.00;50.00;;;;;;;;;;5060233;27;87420;-72
2022/01/26 21:41:17;;;;;;;89.68;51.78;;;;;;;;;;5056245;27;87053;-72
2022/01/26 21:43:44;;;;;;;78.63;51.05;;;;;;;;;;5057867;27;88654;-72
2022/01/26 21:46:12;;;;;;;97.38;58.03;;;;;;;;;;5056351;27;88455;-75
2022/01/26 21:48:39;;;;;;;86.05;54.25;;;;;;;;;;5057177;27;87234;-72
2022/01/26 21:51:06;;;;;;;83.78;56.17;;;;;;;;;;5054964;27;86856;-73